Time;durP1;ratioP1;P1;durP2;ratioP2;P2;SDS_P1;SDS_P2;PMS_P1;PMS_P2;Temp;Humidity;BMP_temperature;BMP_pressure;BME280_temperature;BME280_humidity;BME280_pressure;Samples;Min_cycle;Max_cycle;Signal;HPM_P1;HPM_P2
2024/01/15 00:00:57;;;;;;;0.20;0.20;;;;;;;-3.63;83.05;96525.75;5062247;28;20055;-61
2024/01/15 00:03:24;;;;;;;0.20;0.20;;;;;;;-3.51;82.42;96536.94;5064072;28;20048;-61
2024/01/15 00:05:51;;;;;;;0.10;0.10;;;;;;;-3.46;81.97;96526.81;5063633;28;20066;-61
2024/01/15 00:08:18;;;;;;;0.10;0.10;;;;;;;-3.52;82.23;96527.19;5063762;28;20623;-61
2024/01/15 00:10:45;;;;;;;0.20;0.20;;;;;;;-3.65;82.50;96506.31;5060741;28;20057;-61
2024/01/15 00:13:11;;;;;;;0.20;0.20;;;;;;;-3.46;81.88;96526.03;5043516;28;20049;-62
2024/01/15 00:15:38;;;;;;;0.20;0.20;;;;;;;-3.88;81.83;96469.31;5043766;28;20045;-61
2024/01/15 00:18:05;;;;;;;0.10;0.10;;;;;;;-3.53;81.58;96520.19;5043548;28;20051;-60
2024/01/15 00:20:32;;;;;;;0.20;0.20;;;;;;;-4.57;81.44;96334.91;5043405;28;20201;-61
2024/01/15 00:22:59;;;;;;;0.20;0.20;;;;;;;-3.62;82.18;96532.78;5058919;28;20052;-61
2024/01/15 00:25:26;;;;;;;0.20;0.20;;;;;;;-3.56;82.82;96528.91;5043449;28;20057;-63
2024/01/15 00:27:52;;;;;;;0.20;0.20;;;;;;;-3.53;83.22;96531.00;5043680;28;20061;-61
2024/01/15 00:30:19;;;;;;;0.10;0.10;;;;;;;-3.57;83.12;96529.97;5054923;28;20045;-61
2024/01/15 00:32:46;;;;;;;0.10;0.10;;;;;;;-3.55;83.06;96522.38;5063530;28;20137;-62
2024/01/15 00:35:13;;;;;;;0.10;0.10;;;;;;;-3.96;83.04;96478.06;5063428;28;20072;-60
2024/01/15 00:37:40;;;;;;;0.20;0.20;;;;;;;-3.67;83.25;96517.44;5061709;28;20056;-62
2024/01/15 00:40:07;;;;;;;0.20;0.20;;;;;;;-3.67;83.24;96611.31;5062049;28;20063;-62
2024/01/15 00:42:34;;;;;;;0.10;0.10;;;;;;;-4.45;82.53;96410.09;5063352;28;20094;-61
2024/01/15 00:45:01;;;;;;;0.20;0.20;;;;;;;-3.84;82.55;96516.31;5063252;28;20056;-61
2024/01/15 00:47:28;;;;;;;0.20;0.20;;;;;;;-3.86;82.76;96524.75;5063174;28;20048;-61
2024/01/15 00:49:55;;;;;;;0.10;0.10;;;;;;;-4.28;83.26;96475.28;5062882;28;20059;-61
2024/01/15 00:52:22;;;;;;;0.20;0.20;;;;;;;-4.79;84.87;96438.06;5065399;28;20062;-61
2024/01/15 00:54:48;;;;;;;0.20;0.20;;;;;;;-4.04;84.18;96512.00;5067143;28;20633;-63
2024/01/15 00:57:15;;;;;;;0.20;0.20;;;;;;;-4.50;83.57;96461.53;5066453;28;20053;-61
2024/01/15 00:59:42;;;;;;;0.10;0.10;;;;;;;-4.05;83.41;96506.88;5065265;28;20182;-60
2024/01/15 01:02:08;;;;;;;0.10;0.10;;;;;;;-4.37;82.63;96461.59;5066387;28;20059;-60
2024/01/15 01:04:35;;;;;;;0.10;0.10;;;;;;;-4.06;83.00;96513.38;5066663;28;20138;-61
2024/01/15 01:07:02;;;;;;;0.20;0.20;;;;;;;-4.04;83.66;96508.47;5066327;28;20052;-62
2024/01/15 01:09:30;;;;;;;0.20;0.20;;;;;;;-4.30;83.89;96463.97;5066893;28;20060;-61
2024/01/15 01:11:57;;;;;;;0.10;0.10;;;;;;;-4.13;83.92;96478.59;5065161;28;20469;-61
2024/01/15 01:14:23;;;;;;;0.10;0.10;;;;;;;-3.99;83.50;96500.28;5066634;28;20061;-63
2024/01/15 01:16:50;;;;;;;0.20;0.20;;;;;;;-4.11;84.06;96475.59;5066725;28;20071;-61
2024/01/15 01:19:17;;;;;;;0.20;0.20;;;;;;;-3.93;84.12;96493.72;5061661;28;20056;-61
2024/01/15 01:21:44;;;;;;;0.20;0.20;;;;;;;-3.91;84.08;96488.81;5061319;28;20060;-61
2024/01/15 01:24:11;;;;;;;0.10;0.10;;;;;;;-3.85;83.20;96482.25;5046440;28;20049;-61
2024/01/15 01:26:38;;;;;;;0.10;0.10;;;;;;;-3.92;82.85;96468.31;5044784;28;20127;-61
2024/01/15 01:29:04;;;;;;;0.20;0.20;;;;;;;-4.10;82.51;96463.69;5046574;28;20053;-61
2024/01/15 01:31:32;;;;;;;0.10;0.10;;;;;;;-4.08;82.05;96437.97;5064746;28;20052;-62
2024/01/15 01:33:58;;;;;;;0.13;0.13;;;;;;;-3.82;82.04;96492.47;5066188;28;20055;-60
2024/01/15 01:36:26;;;;;;;0.15;0.15;;;;;;;-3.94;81.90;96446.13;5065805;28;20135;-61
2024/01/15 01:38:53;;;;;;;0.17;0.17;;;;;;;-3.91;82.52;96461.78;5066318;28;20110;-61
2024/01/15 01:41:20;;;;;;;0.10;0.10;;;;;;;-4.05;83.19;96469.00;5064393;28;20067;-61
2024/01/15 01:43:47;;;;;;;0.20;0.20;;;;;;;-3.99;84.14;96465.13;5066507;28;20048;-62
2024/01/15 01:46:13;;;;;;;0.20;0.20;;;;;;;-3.95;83.95;96463.47;5065816;28;20055;-60
2024/01/15 01:48:40;;;;;;;0.13;0.13;;;;;;;-3.95;83.76;96460.78;5066023;28;20048;-61
2024/01/15 01:51:07;;;;;;;0.17;0.17;;;;;;;-3.82;82.81;96473.53;5065784;28;20438;-60
2024/01/15 01:53:36;;;;;;;0.20;0.20;;;;;;;-3.75;82.59;96458.56;5064284;28;20048;-61
2024/01/15 01:56:04;;;;;;;0.10;0.10;;;;;;;-3.82;82.93;96460.81;5065483;28;20515;-62
2024/01/15 01:58:33;;;;;;;0.10;0.10;;;;;;;-3.82;82.67;96465.44;5065717;28;20087;-60
2024/01/15 02:01:00;;;;;;;0.17;0.17;;;;;;;-3.81;81.46;96456.22;5065954;28;20059;-61
2024/01/15 02:03:28;;;;;;;0.10;0.10;;;;;;;-4.00;81.73;96452.72;5064908;28;20049;-61
2024/01/15 02:05:55;;;;;;;0.15;0.15;;;;;;;-3.97;81.18;96460.25;5064333;28;20053;-62
2024/01/15 02:08:23;;;;;;;0.15;0.15;;;;;;;-3.96;81.33;96462.66;5065928;28;20325;-61
2024/01/15 02:10:49;;;;;;;0.20;0.20;;;;;;;-3.99;81.55;96451.63;5065590;28;20507;-62
2024/01/15 02:13:17;;;;;;;0.20;0.20;;;;;;;-3.97;81.55;96454.84;5064253;28;20059;-62
2024/01/15 02:15:44;;;;;;;0.20;0.20;;;;;;;-4.04;81.82;96466.03;5064134;28;20049;-64
2024/01/15 02:18:11;;;;;;;0.10;0.10;;;;;;;-4.02;81.78;96457.63;5065104;28;20048;-62
2024/01/15 02:20:38;;;;;;;0.10;0.10;;;;;;;-4.03;82.06;96456.03;5065197;28;20052;-59
2024/01/15 02:23:12;;;;;;;0.20;0.20;;;;;;;-4.05;81.92;96466.31;5065088;28;20049;-59
2024/01/15 02:25:46;;;;;;;0.10;0.10;;;;;;;-4.08;82.95;96447.97;5063583;28;20050;-60
2024/01/15 02:28:15;;;;;;;0.10;0.10;;;;;;;-4.02;82.86;96438.69;5064030;28;20449;-60
2024/01/15 02:30:43;;;;;;;0.13;0.13;;;;;;;-3.94;83.05;96432.63;5064805;28;20055;-61
2024/01/15 02:33:11;;;;;;;0.10;0.10;;;;;;;-3.89;82.97;96435.25;5065153;28;20143;-61
2024/01/15 02:35:38;;;;;;;0.20;0.20;;;;;;;-4.46;82.99;96344.47;5064861;28;20052;-63
2024/01/15 02:38:06;;;;;;;0.10;0.10;;;;;;;-3.91;82.93;96426.63;5064825;28;20102;-62
2024/01/15 02:40:33;;;;;;;0.10;0.10;;;;;;;-3.83;82.38;96434.06;5064629;28;20049;-61
2024/01/15 02:43:00;;;;;;;0.10;0.10;;;;;;;-3.96;81.31;96445.63;5064381;28;20045;-63
2024/01/15 02:45:27;;;;;;;0.20;0.20;;;;;;;-4.16;83.11;96429.69;5063467;28;20052;-61
2024/01/15 02:47:54;;;;;;;0.20;0.20;;;;;;;-3.99;82.90;96432.69;5063267;28;20489;-61
2024/01/15 02:50:21;;;;;;;0.20;0.20;;;;;;;-4.05;82.95;96425.75;5064721;28;20476;-61
2024/01/15 02:52:48;;;;;;;0.20;0.20;;;;;;;-4.51;82.94;96359.94;5064594;28;20127;-61
2024/01/15 02:55:15;;;;;;;0.10;0.10;;;;;;;-3.90;82.73;96439.03;5064748;28;20048;-62
2024/01/15 02:57:41;;;;;;;0.10;0.10;;;;;;;-3.95;82.44;96441.84;5064302;28;20529;-61
2024/01/15 03:00:09;;;;;;;0.10;0.10;;;;;;;-4.02;82.59;96442.22;5064605;28;20067;-59
2024/01/15 03:02:39;;;;;;;0.10;0.10;;;;;;;-4.66;82.53;96348.25;5064627;28;20053;-60
2024/01/15 03:05:12;;;;;;;0.20;0.20;;;;;;;-4.01;82.65;96445.69;5063275;28;20051;-61
2024/01/15 03:07:39;;;;;;;0.10;0.10;;;;;;;-3.94;82.71;96440.72;5064426;28;20066;-61
2024/01/15 03:10:06;;;;;;;0.20;0.20;;;;;;;-4.49;82.29;96379.38;5062685;28;20453;-60
2024/01/15 03:12:33;;;;;;;0.10;0.10;;;;;;;-4.11;82.62;96416.13;5062945;28;20125;-64
2024/01/15 03:15:01;;;;;;;0.10;0.10;;;;;;;-4.42;82.59;96371.69;5064527;28;20054;-60
2024/01/15 03:17:27;;;;;;;0.20;0.20;;;;;;;-3.99;82.37;96425.38;5062692;28;20131;-62
2024/01/15 03:19:54;;;;;;;0.20;0.20;;;;;;;-3.92;82.40;96427.72;5064418;28;20114;-61
2024/01/15 03:22:21;;;;;;;0.10;0.10;;;;;;;-3.86;82.40;96418.44;5064314;28;20120;-60
2024/01/15 03:24:48;;;;;;;0.10;0.10;;;;;;;-3.90;82.48;96428.22;5064596;28;20048;-61
2024/01/15 03:27:15;;;;;;;0.20;0.20;;;;;;;-3.79;82.50;96424.25;5063711;28;20053;-61
2024/01/15 03:29:42;;;;;;;0.10;0.10;;;;;;;-4.16;82.30;96372.94;5062901;28;20051;-61
2024/01/15 03:32:08;;;;;;;0.20;0.20;;;;;;;-3.99;82.36;96430.81;5062334;28;20484;-61
2024/01/15 03:34:35;;;;;;;0.20;0.20;;;;;;;-4.10;84.10;96428.53;5063155;28;20128;-61
2024/01/15 03:37:02;;;;;;;0.20;0.20;;;;;;;-4.10;84.47;96412.31;5063598;28;20616;-60
2024/01/15 03:39:29;;;;;;;0.20;0.20;;;;;;;-3.95;84.76;96414.81;5062623;28;20048;-61
2024/01/15 03:41:56;;;;;;;0.10;0.10;;;;;;;-4.31;84.00;96363.16;5063373;28;20060;-61
2024/01/15 03:44:22;;;;;;;0.20;0.20;;;;;;;-4.42;83.20;96355.47;5063740;28;20159;-60
2024/01/15 03:46:50;;;;;;;0.13;0.13;;;;;;;-3.98;82.77;96409.97;5063748;28;20044;-60
2024/01/15 03:49:16;;;;;;;0.10;0.10;;;;;;;-4.09;81.30;96419.31;5062412;28;20518;-60
2024/01/15 03:51:44;;;;;;;0.20;0.20;;;;;;;-4.26;82.13;96421.72;5062265;28;20518;-61
2024/01/15 03:54:11;;;;;;;0.10;0.10;;;;;;;-4.19;80.88;96417.59;5063539;28;20052;-61
2024/01/15 03:56:38;;;;;;;0.20;0.20;;;;;;;-4.04;79.61;96421.94;5062329;28;20489;-60
2024/01/15 03:59:05;;;;;;;0.10;0.10;;;;;;;-4.17;80.55;96426.19;5063843;28;20048;-60
2024/01/15 04:01:31;;;;;;;0.10;0.10;;;;;;;-4.84;81.34;96349.00;5050923;28;20060;-60
2024/01/15 04:03:58;;;;;;;0.10;0.10;;;;;;;-4.24;82.39;96438.47;5043345;28;20076;-60
2024/01/15 04:06:25;;;;;;;0.10;0.10;;;;;;;-4.28;81.82;96421.22;5043210;28;20140;-61
2024/01/15 04:08:52;;;;;;;0.10;0.10;;;;;;;-4.31;82.45;96433.41;5043848;28;20581;-60
2024/01/15 04:11:19;;;;;;;0.10;0.10;;;;;;;-4.30;83.39;96494.47;5043410;28;20063;-64
2024/01/15 04:13:46;;;;;;;0.20;0.20;;;;;;;-4.24;83.73;96416.84;5044009;28;20055;-61
2024/01/15 04:16:12;;;;;;;0.20;0.20;;;;;;;-4.39;83.79;96409.75;5043684;28;20052;-61
2024/01/15 04:18:39;;;;;;;0.20;0.20;;;;;;;-4.19;83.86;96443.81;5041845;28;20052;-62
2024/01/15 04:21:06;;;;;;;0.10;0.10;;;;;;;-4.80;83.84;96350.06;5058579;28;20053;-60
2024/01/15 04:23:33;;;;;;;0.10;0.10;;;;;;;-4.63;81.83;96371.97;5043499;28;20056;-60
2024/01/15 04:26:00;;;;;;;0.20;0.20;;;;;;;-4.46;81.35;96424.72;5043726;28;20142;-61
2024/01/15 04:28:27;;;;;;;0.20;0.20;;;;;;;-4.37;81.56;96442.69;5046878;28;20377;-61
2024/01/15 04:30:54;;;;;;;0.10;0.10;;;;;;;-4.40;81.70;96455.97;5059412;28;20064;-62
2024/01/15 04:33:21;;;;;;;0.10;0.10;;;;;;;-4.91;81.91;96382.88;5065761;28;20056;-61
2024/01/15 04:35:47;;;;;;;0.20;0.20;;;;;;;-4.58;81.88;96444.03;5067144;28;20494;-61
2024/01/15 04:38:14;;;;;;;0.10;0.10;;;;;;;-4.56;82.18;96441.03;5067060;28;20052;-60
2024/01/15 04:40:41;;;;;;;0.17;0.17;;;;;;;-4.57;82.45;96444.84;5067242;28;20044;-62
2024/01/15 04:43:08;;;;;;;0.10;0.10;;;;;;;-4.58;81.89;96435.16;5067145;28;20419;-60
2024/01/15 04:45:34;;;;;;;0.10;0.10;;;;;;;-4.54;82.15;96434.28;5067051;28;20053;-61
2024/01/15 04:48:01;;;;;;;0.10;0.10;;;;;;;-4.75;82.74;96447.22;5065722;28;20048;-62
2024/01/15 04:50:28;;;;;;;0.10;0.10;;;;;;;-4.93;83.73;96399.34;5067331;28;20052;-62
2024/01/15 04:52:55;;;;;;;0.10;0.10;;;;;;;-4.65;83.09;96424.69;5066994;28;20064;-61
2024/01/15 04:55:22;;;;;;;0.10;0.10;;;;;;;-4.75;82.63;96430.19;5066862;28;20123;-61
2024/01/15 04:57:49;;;;;;;0.10;0.10;;;;;;;-4.62;82.54;96426.81;5066833;28;20052;-60
2024/01/15 05:00:16;;;;;;;0.20;0.20;;;;;;;-4.65;82.98;96422.78;5066554;28;20510;-60
2024/01/15 05:02:42;;;;;;;0.15;0.15;;;;;;;-4.63;83.67;96410.91;5066719;28;20445;-61
2024/01/15 05:05:09;;;;;;;0.20;0.20;;;;;;;-5.07;84.24;96339.06;5065220;28;20426;-61
2024/01/15 05:07:36;;;;;;;0.10;0.10;;;;;;;-4.61;84.68;96406.78;5066497;28;20051;-63
2024/01/15 05:10:04;;;;;;;0.13;0.13;;;;;;;-4.50;84.11;96407.50;5065257;28;20044;-61
2024/01/15 05:12:30;;;;;;;0.20;0.20;;;;;;;-4.46;84.07;96408.50;5066299;28;20103;-62
2024/01/15 05:14:57;;;;;;;0.10;0.10;;;;;;;-4.38;83.82;96410.56;5065107;28;20048;-61
2024/01/15 05:17:24;;;;;;;0.20;0.20;;;;;;;-4.34;83.43;96427.78;5064888;28;20067;-61
2024/01/15 05:19:51;;;;;;;0.10;0.10;;;;;;;-4.88;82.96;96315.59;5066287;28;20477;-62
2024/01/15 05:22:18;;;;;;;0.10;0.10;;;;;;;-4.78;82.72;96331.69;5065978;28;20051;-60
2024/01/15 05:24:44;;;;;;;0.20;0.20;;;;;;;-4.56;83.11;96376.22;5065077;28;20064;-61
2024/01/15 05:27:11;;;;;;;0.20;0.20;;;;;;;-6.71;82.92;96081.94;5065888;28;20060;-61
2024/01/15 05:29:38;;;;;;;0.10;0.10;;;;;;;-4.67;84.18;96408.78;5066413;28;20056;-62
2024/01/15 05:32:05;;;;;;;0.10;0.10;;;;;;;-4.47;83.57;96417.72;5066176;28;20053;-61
2024/01/15 05:34:32;;;;;;;0.10;0.10;;;;;;;-4.50;82.88;96402.88;5066437;28;20125;-61
2024/01/15 05:36:59;;;;;;;0.10;0.10;;;;;;;-4.54;82.71;96411.84;5065766;28;20109;-61
2024/01/15 05:39:26;;;;;;;0.10;0.10;;;;;;;-4.59;82.96;96387.59;5064756;28;20066;-61
2024/01/15 05:41:53;;;;;;;0.17;0.17;;;;;;;-4.38;82.24;96394.34;5065892;28;20053;-62
2024/01/15 05:44:19;;;;;;;0.10;0.10;;;;;;;-4.36;81.95;96386.75;5081538;28;20049;-61
2024/01/15 05:46:46;;;;;;;0.20;0.20;;;;;;;-4.44;82.15;96390.09;5065557;28;20539;-60
2024/01/15 05:49:14;;;;;;;0.20;0.20;;;;;;;-5.13;82.22;96297.03;5058926;28;20048;-61
2024/01/15 05:51:41;;;;;;;0.10;0.10;;;;;;;-4.53;83.17;96386.44;5064575;28;20048;-61
2024/01/15 05:54:07;;;;;;;0.10;0.10;;;;;;;-4.36;82.13;96408.38;5065978;28;20218;-62
2024/01/15 05:56:34;;;;;;;0.10;0.10;;;;;;;-4.97;81.11;96333.53;5065492;28;20216;-61
2024/01/15 05:59:01;;;;;;;0.20;0.20;;;;;;;-4.67;81.15;96368.25;5065576;28;20044;-62
2024/01/15 06:01:28;;;;;;;0.13;0.13;;;;;;;-4.46;81.46;96395.00;5065455;28;20049;-61
2024/01/15 06:03:55;;;;;;;0.20;0.20;;;;;;;-4.38;82.10;96383.53;5064443;28;20048;-61
2024/01/15 06:06:22;;;;;;;0.10;0.10;;;;;;;-4.31;82.53;96392.06;5065950;28;20044;-61
2024/01/15 06:08:49;;;;;;;0.20;0.20;;;;;;;-5.62;81.92;96202.16;5065790;28;20049;-60
2024/01/15 06:11:15;;;;;;;0.15;0.15;;;;;;;-5.18;84.65;96386.16;5065536;28;20512;-61
2024/01/15 06:13:42;;;;;;;0.10;0.10;;;;;;;-5.48;86.64;96386.47;5065613;28;20127;-61
2024/01/15 06:16:20;;;;;;;0.10;0.10;;;;;;;-5.11;87.40;96397.44;5050477;28;20061;-61
2024/01/15 06:18:46;;;;;;;0.10;0.10;;;;;;;-5.49;86.61;96322.84;5045344;28;20068;-61
2024/01/15 06:21:14;;;;;;;0.20;0.20;;;;;;;-4.77;86.50;96383.78;5045017;28;20504;-63
2024/01/15 06:23:41;;;;;;;0.20;0.20;;;;;;;-4.67;85.95;96397.97;5043868;28;20297;-61
2024/01/15 06:26:08;;;;;;;0.10;0.10;;;;;;;-4.41;85.78;96403.03;5043705;28;20507;-62
2024/01/15 06:28:34;;;;;;;0.13;0.13;;;;;;;-4.14;84.88;96392.38;5045815;28;20067;-63
2024/01/15 06:31:01;;;;;;;0.10;0.10;;;;;;;-3.96;83.59;96402.34;5057364;28;20075;-60
2024/01/15 06:33:28;;;;;;;0.10;0.10;;;;;;;-3.82;82.67;96406.72;5065045;28;20526;-64
2024/01/15 06:35:56;;;;;;;0.10;0.10;;;;;;;-3.72;82.71;96403.06;5063607;28;20541;-62
2024/01/15 06:38:23;;;;;;;0.15;0.15;;;;;;;-3.77;82.89;96392.31;5064665;28;20059;-62
2024/01/15 06:40:51;;;;;;;0.15;0.15;;;;;;;-4.24;82.15;96373.59;5063448;28;20532;-62
2024/01/15 06:43:19;;;;;;;0.17;0.17;;;;;;;-4.46;83.61;96343.66;5065023;28;20055;-63
2024/01/15 06:45:46;;;;;;;0.20;0.20;;;;;;;-3.70;83.56;96396.25;5064421;28;20088;-61
2024/01/15 06:48:16;;;;;;;0.20;0.20;;;;;;;-3.83;83.13;96345.63;5064776;28;20056;-61
2024/01/15 06:50:43;;;;;;;0.20;0.20;;;;;;;-3.35;82.53;96398.34;5064418;28;20049;-62
2024/01/15 06:53:10;;;;;;;0.20;0.20;;;;;;;-5.36;81.29;96113.59;5063337;28;20055;-64
2024/01/15 06:55:38;;;;;;;0.10;0.10;;;;;;;-3.43;80.11;96350.31;5063171;28;20056;-62
2024/01/15 06:58:05;;;;;;;0.20;0.20;;;;;;;-3.09;79.95;96379.72;5063731;28;20060;-65
2024/01/15 07:00:32;;;;;;;0.20;0.20;;;;;;;-3.36;79.82;96390.53;5063806;28;20495;-66
2024/01/15 07:02:59;;;;;;;0.13;0.13;;;;;;;-3.77;80.74;96379.59;5064255;28;20117;-66
2024/01/15 07:05:26;;;;;;;0.20;0.20;;;;;;;-3.12;81.03;96364.09;5062980;28;20124;-62
2024/01/15 07:07:53;;;;;;;0.20;0.20;;;;;;;-2.74;80.71;96383.66;5063409;28;20127;-69
2024/01/15 07:10:19;;;;;;;0.20;0.20;;;;;;;-3.60;80.18;96232.91;5063243;28;20048;-70
2024/01/15 07:12:46;;;;;;;0.20;0.20;;;;;;;-2.35;80.64;96382.00;5062194;28;20059;-69
2024/01/15 07:15:14;;;;;;;0.20;0.20;;;;;;;-2.17;79.22;96375.63;5061523;28;20048;-70
2024/01/15 07:17:42;;;;;;;0.20;0.20;;;;;;;-2.12;78.21;96342.16;5061753;28;20052;-70
2024/01/15 07:20:09;;;;;;;0.20;0.20;;;;;;;-2.76;78.60;96191.56;5077341;28;20052;-68
2024/01/15 07:22:37;;;;;;;0.20;0.20;;;;;;;-1.29;78.39;96371.28;5081007;28;20731;-68
2024/01/15 07:25:04;;;;;;;0.20;0.20;;;;;;;-1.53;77.28;96321.97;5083319;28;20159;-67
2024/01/15 07:27:32;;;;;;;0.20;0.20;;;;;;;-1.57;75.10;96314.47;5083029;28;20121;-65
2024/01/15 07:29:59;;;;;;;0.20;0.20;;;;;;;-2.10;75.96;96207.00;5078367;28;20052;-69
2024/01/15 07:32:31;;;;;;;0.20;0.20;;;;;;;-1.83;75.76;96221.22;5063270;28;20055;-70
2024/01/15 07:34:59;;;;;;;0.20;0.20;;;;;;;-0.98;75.01;96312.31;5055778;28;20503;-71
2024/01/15 07:37:26;;;;;;;0.20;0.20;;;;;;;-0.66;74.47;96355.41;5044802;28;20079;-65
2024/01/15 07:39:53;;;;;;;0.20;0.20;;;;;;;-1.72;74.43;96198.13;5063341;28;20056;-74
2024/01/15 07:42:20;;;;;;;0.20;0.20;;;;;;;-0.20;73.04;96358.38;5062173;28;20453;-67
2024/01/15 07:44:47;;;;;;;0.20;0.20;;;;;;;-0.11;73.22;96367.34;5063231;28;20056;-62
2024/01/15 07:47:13;;;;;;;0.20;0.20;;;;;;;0.09;73.17;96364.03;5063121;28;20597;-66
2024/01/15 07:49:40;;;;;;;0.20;0.20;;;;;;;0.29;72.00;96371.53;5062535;28;20059;-76
2024/01/15 07:52:10;;;;;;;0.20;0.20;;;;;;;0.49;71.41;96365.44;5063119;28;20044;-73
2024/01/15 07:54:36;;;;;;;0.20;0.20;;;;;;;-0.38;70.12;96193.56;5062115;28;20052;-73
2024/01/15 07:57:03;;;;;;;0.20;0.20;;;;;;;0.89;69.46;96364.06;5063879;28;20081;-68
2024/01/15 07:59:30;;;;;;;0.30;0.30;;;;;;;-0.60;68.60;96087.69;5062273;28;20084;-72
2024/01/15 08:01:59;;;;;;;0.20;0.20;;;;;;;1.17;68.07;96354.34;5061097;28;20083;-69
2024/01/15 08:04:26;;;;;;;0.20;0.20;;;;;;;0.03;68.33;96196.56;5063531;28;20605;-70
2024/01/15 08:06:53;;;;;;;0.20;0.20;;;;;;;0.54;67.99;96252.78;5063096;28;20041;-64
2024/01/15 08:09:20;;;;;;;0.20;0.20;;;;;;;1.03;66.65;96277.41;5063204;28;20083;-66
2024/01/15 08:11:47;;;;;;;0.20;0.20;;;;;;;1.67;66.23;96372.72;5061855;28;20431;-70
2024/01/15 08:14:17;;;;;;;0.20;0.20;;;;;;;1.77;66.72;96364.16;5063171;28;20049;-64
2024/01/15 08:16:44;;;;;;;0.20;0.20;;;;;;;1.52;66.97;96273.94;5063169;28;20396;-63
2024/01/15 08:19:11;;;;;;;0.30;0.30;;;;;;;2.32;66.39;96367.47;5062850;28;20511;-69
2024/01/15 08:21:38;;;;;;;0.20;0.20;;;;;;;2.15;65.52;96351.22;5061933;28;20539;-72
2024/01/15 08:24:07;;;;;;;0.20;0.20;;;;;;;2.76;64.70;96369.47;5063255;28;20063;-70
2024/01/15 08:26:34;;;;;;;0.20;0.20;;;;;;;2.87;62.79;96351.50;5046406;28;20053;-69
2024/01/15 08:29:01;;;;;;;0.25;0.25;;;;;;;1.95;63.70;96291.91;5043055;28;20104;-70
2024/01/15 08:31:27;;;;;;;0.20;0.20;;;;;;;2.01;66.19;96378.00;5058214;28;20147;-66
2024/01/15 08:33:55;;;;;;;0.20;0.20;;;;;;;2.02;67.71;96365.91;5057988;28;20543;-69
2024/01/15 08:36:24;;;;;;;0.20;0.20;;;;;;;0.35;63.81;96048.13;5043528;28;20072;-70
2024/01/15 08:38:51;;;;;;;0.20;0.20;;;;;;;2.82;62.98;96370.84;5042402;28;20064;-73
2024/01/15 08:41:17;;;;;;;0.20;0.20;;;;;;;2.24;62.82;96321.88;5043634;28;20110;-65
2024/01/15 08:43:44;;;;;;;0.30;0.30;;;;;;;1.61;66.35;96297.63;5043109;28;20534;-66
2024/01/15 08:46:11;;;;;;;0.20;0.20;;;;;;;1.38;63.91;96191.53;5043245;28;20160;-68
2024/01/15 08:48:38;;;;;;;0.20;0.20;;;;;;;2.83;63.68;96375.16;5043180;28;20439;-62
2024/01/15 08:51:05;;;;;;;0.20;0.20;;;;;;;1.75;63.47;96156.25;5042923;28;20135;-73
2024/01/15 08:53:32;;;;;;;0.20;0.20;;;;;;;2.23;62.94;96238.34;5041562;28;20053;-68
2024/01/15 08:55:59;;;;;;;0.20;0.20;;;;;;;2.48;59.78;96223.59;5043003;28;20575;-63
2024/01/15 08:58:26;;;;;;;0.30;0.30;;;;;;;2.55;58.31;96164.50;5042583;28;20079;-71
2024/01/15 09:00:53;;;;;;;0.30;0.30;;;;;;;4.22;56.88;96348.06;5043165;28;20551;-63
2024/01/15 09:03:20;;;;;;;0.30;0.30;;;;;;;3.83;57.11;96247.50;5042735;28;20048;-63
2024/01/15 09:05:48;;;;;;;0.30;0.30;;;;;;;4.20;56.78;96305.72;5042582;28;20061;-75
2024/01/15 09:08:15;;;;;;;0.30;0.30;;;;;;;4.66;56.30;96297.63;5042757;28;20056;-65
2024/01/15 09:10:42;;;;;;;0.30;0.30;;;;;;;4.63;56.92;96221.56;5041211;28;20559;-64
2024/01/15 09:13:09;;;;;;;0.30;0.30;;;;;;;5.38;56.80;96320.31;5045002;28;20053;-64
2024/01/15 09:15:36;;;;;;;0.30;0.30;;;;;;;5.41;56.67;96325.06;5044832;28;20056;-65
2024/01/15 09:18:02;;;;;;;0.30;0.30;;;;;;;3.61;55.93;96004.34;5046565;28;20077;-65
2024/01/15 09:20:33;;;;;;;0.30;0.30;;;;;;;5.74;56.16;96311.75;5046027;28;20052;-64
2024/01/15 09:23:00;;;;;;;0.40;0.40;;;;;;;5.21;56.42;96202.63;5046227;28;20060;-63
2024/01/15 09:25:27;;;;;;;0.40;0.40;;;;;;;5.68;55.54;96266.50;5044820;28;20079;-63
2024/01/15 09:27:54;;;;;;;0.30;0.30;;;;;;;5.65;55.38;96231.50;5045884;28;20512;-65
2024/01/15 09:30:24;;;;;;;0.30;0.30;;;;;;;6.22;54.81;96292.09;5047854;28;20125;-65
2024/01/15 09:32:51;;;;;;;0.40;0.40;;;;;;;5.69;54.56;96197.44;5064739;28;20519;-64
2024/01/15 09:35:18;;;;;;;0.40;0.40;;;;;;;5.57;53.84;96205.03;5064716;28;20076;-64
2024/01/15 09:37:46;;;;;;;0.40;0.40;;;;;;;5.95;55.65;96276.56;5054393;28;20507;-65
2024/01/15 09:40:14;;;;;;;0.40;0.40;;;;;;;5.64;55.91;96282.09;5046091;28;20049;-64
2024/01/15 09:42:43;;;;;;;0.30;0.30;;;;;;;5.52;56.43;96268.47;5044484;28;20064;-63
2024/01/15 09:45:11;;;;;;;0.30;0.30;;;;;;;5.39;56.40;96181.88;5045605;28;20048;-63
2024/01/15 09:47:38;;;;;;;0.32;0.32;;;;;;;6.27;53.80;96239.56;5045432;28;20053;-65
2024/01/15 09:50:10;;;;;;;0.30;0.30;;;;;;;5.42;54.80;96241.56;5045763;28;20056;-65
2024/01/15 09:52:40;;;;;;;0.40;0.40;;;;;;;4.52;56.87;96234.19;5044303;28;20138;-67
2024/01/15 09:55:09;;;;;;;0.30;0.30;;;;;;;3.77;58.20;96158.50;5045775;28;20075;-65
2024/01/15 09:57:36;;;;;;;0.30;0.30;;;;;;;4.34;57.57;96098.63;5061999;28;20049;-65
2024/01/15 10:00:06;;;;;;;0.30;0.30;;;;;;;4.16;58.15;96132.97;5063818;28;20503;-65
2024/01/15 10:02:35;;;;;;;0.30;0.30;;;;;;;4.50;57.33;96085.69;5064473;28;20048;-65
2024/01/15 10:05:02;;;;;;;0.30;0.30;;;;;;;4.81;57.42;96089.53;5065525;28;20127;-65
2024/01/15 10:07:32;;;;;;;0.30;0.30;;;;;;;5.56;56.98;96137.53;5065188;28;20522;-66
2024/01/15 10:09:59;;;;;;;0.30;0.30;;;;;;;4.62;55.14;95907.34;5065617;28;20454;-63
2024/01/15 10:12:27;;;;;;;0.40;0.40;;;;;;;6.47;54.87;96177.84;5064850;28;20514;-66
2024/01/15 10:14:56;;;;;;;0.40;0.40;;;;;;;6.28;54.01;96125.63;5065589;28;20055;-66
2024/01/15 10:17:24;;;;;;;0.30;0.30;;;;;;;6.53;53.61;96157.13;5064951;28;20993;-63
2024/01/15 10:19:51;;;;;;;0.40;0.40;;;;;;;2.97;53.90;95738.47;5065350;28;20052;-66
2024/01/15 10:22:18;;;;;;;0.32;0.32;;;;;;;5.39;52.81;96165.41;5064827;28;20522;-65
2024/01/15 10:24:46;;;;;;;0.40;0.40;;;;;;;5.24;52.91;96108.56;5064064;28;20048;-64
2024/01/15 10:27:15;;;;;;;0.30;0.30;;;;;;;4.86;51.05;96039.88;5063284;28;21855;-64
2024/01/15 10:29:42;;;;;;;0.30;0.30;;;;;;;4.48;51.30;96066.06;5064989;28;20507;-66
2024/01/15 10:32:09;;;;;;;0.40;0.40;;;;;;;4.66;49.92;96017.13;5064789;28;20139;-64
2024/01/15 10:34:40;;;;;;;0.30;0.30;;;;;;;5.51;49.29;96168.00;5063434;28;20098;-66
2024/01/15 10:37:09;;;;;;;0.35;0.35;;;;;;;5.56;51.50;96160.31;5063539;28;20052;-66
2024/01/15 10:39:37;;;;;;;0.35;0.35;;;;;;;4.98;50.18;95995.88;5062338;28;20140;-66
2024/01/15 10:42:06;;;;;;;0.30;0.30;;;;;;;6.39;50.57;96148.63;5043218;28;20057;-65
2024/01/15 10:44:34;;;;;;;0.40;0.40;;;;;;;6.50;50.25;96144.13;5045422;28;20044;-64
2024/01/15 10:47:01;;;;;;;0.40;0.40;;;;;;;6.30;49.62;96139.81;5044375;28;20490;-67
2024/01/15 10:49:30;;;;;;;0.30;0.30;;;;;;;5.70;50.27;96082.88;5044499;28;20061;-66
2024/01/15 10:52:01;;;;;;;0.40;0.40;;;;;;;6.43;50.13;96133.00;5059377;28;20053;-67
2024/01/15 10:54:30;;;;;;;0.40;0.40;;;;;;;6.65;49.42;96107.47;5044746;28;20048;-67
2024/01/15 10:56:57;;;;;;;0.32;0.32;;;;;;;6.91;48.44;96093.72;5059262;28;20444;-64
2024/01/15 10:59:24;;;;;;;0.40;0.40;;;;;;;7.10;48.09;96084.53;5044163;28;20451;-65
2024/01/15 11:01:56;;;;;;;0.40;0.40;;;;;;;4.52;47.10;95658.41;5044611;28;20056;-68
2024/01/15 11:04:26;;;;;;;0.40;0.40;;;;;;;7.27;46.98;96079.28;5043253;28;20129;-65
2024/01/15 11:06:55;;;;;;;0.40;0.40;;;;;;;6.86;46.16;96063.75;5044609;28;20067;-64
2024/01/15 11:09:24;;;;;;;0.40;0.40;;;;;;;6.94;46.72;96048.94;5044648;28;20057;-67
2024/01/15 11:12:06;;;;;;;0.40;0.40;;;;;;;7.56;45.61;96070.25;5042783;28;20440;-64
2024/01/15 11:14:35;;;;;;;0.40;0.40;;;;;;;7.87;45.32;96073.78;5043861;28;20115;-69
2024/01/15 11:17:02;;;;;;;0.40;0.40;;;;;;;8.04;44.43;96067.66;5040407;28;20080;-63
2024/01/15 11:19:46;;;;;;;0.40;0.40;;;;;;;8.21;44.58;96056.00;5063561;28;20060;-65
2024/01/15 11:22:34;;;;;;;0.40;0.40;;;;;;;8.19;44.78;96047.34;5064352;28;20056;-67
2024/01/15 11:25:14;;;;;;;0.40;0.40;;;;;;;7.97;43.93;95984.84;5064226;28;20051;-67
2024/01/15 11:27:53;;;;;;;0.47;0.47;;;;;;;8.42;43.84;96050.72;5063735;28;20149;-67
2024/01/15 11:30:25;;;;;;;0.40;0.40;;;;;;;8.14;44.30;96044.91;5079260;28;20059;-64
2024/01/15 11:32:52;;;;;;;0.40;0.40;;;;;;;7.72;44.14;95996.44;5084385;28;20044;-68
2024/01/15 11:35:19;;;;;;;0.40;0.40;;;;;;;8.36;43.01;96035.72;5083473;28;20066;-68
2024/01/15 11:37:56;;;;;;;0.45;0.45;;;;;;;8.48;43.17;96021.59;5083910;28;20043;-64